Time;durP1;ratioP1;P1;durP2;ratioP2;P2;SDS_P1;SDS_P2;PMS_P1;PMS_P2;Temp;Humidity;BMP_temperature;BMP_pressure;BME280_temperature;BME280_humidity;BME280_pressure;Samples;Min_cycle;Max_cycle;Signal;HPM_P1;HPM_P2
2021/04/21 00:00:30;;;;;;;5.93;2.53;;;3.60;99.90;;;;;;5055689;28;20427;-52
2021/04/21 00:02:56;;;;;;;4.38;2.58;;;3.60;99.90;;;;;;5055810;28;20096;-51
2021/04/21 00:05:25;;;;;;;3.83;2.53;;;3.60;99.90;;;;;;5055444;28;20033;-52
2021/04/21 00:07:51;;;;;;;6.65;2.30;;;3.50;99.90;;;;;;5054615;28;20032;-48
2021/04/21 00:10:19;;;;;;;8.77;2.58;;;3.50;99.90;;;;;;5055284;28;20025;-48
2021/04/21 00:12:46;;;;;;;7.47;3.03;;;3.40;99.90;;;;;;5055479;28;20507;-50
2021/04/21 00:15:15;;;;;;;4.05;2.08;;;3.40;99.90;;;;;;5055544;28;20044;-49
2021/04/21 00:17:45;;;;;;;6.93;2.70;;;3.30;99.90;;;;;;5055425;28;20048;-49
2021/04/21 00:20:12;;;;;;;4.40;2.40;;;3.30;99.90;;;;;;5055320;28;20104;-52
2021/04/21 00:22:40;;;;;;;3.92;2.60;;;3.20;99.90;;;;;;5054089;28;20102;-49
2021/04/21 00:25:06;;;;;;;3.80;2.13;;;3.20;99.90;;;;;;5055285;28;20033;-51
2021/04/21 00:27:33;;;;;;;3.85;2.47;;;3.20;99.90;;;;;;5055267;28;20036;-50
2021/04/21 00:30:07;;;;;;;5.03;2.33;;;3.10;99.90;;;;;;5053768;28;20530;-54
2021/04/21 00:32:39;;;;;;;3.22;2.33;;;3.10;99.90;;;;;;5054953;28;20037;-50
2021/04/21 00:35:06;;;;;;;7.63;2.47;;;3.00;99.90;;;;;;5054038;28;20090;-50
2021/04/21 00:37:32;;;;;;;6.18;3.40;;;3.00;99.90;;;;;;5053889;28;20021;-49
2021/04/21 00:39:59;;;;;;;3.83;2.35;;;3.00;99.90;;;;;;5054712;28;20028;-49
2021/04/21 00:42:39;;;;;;;5.13;2.05;;;2.90;99.90;;;;;;5054956;28;20025;-51
2021/04/21 00:45:15;;;;;;;7.10;2.58;;;2.90;99.90;;;;;;5054931;28;20057;-50
2021/04/21 00:48:09;;;;;;;4.93;2.60;;;2.80;99.90;;;;;;5054736;28;20033;-50
2021/04/21 00:50:45;;;;;;;8.18;2.60;;;2.80;99.90;;;;;;5053832;28;20043;-50
2021/04/21 00:53:34;;;;;;;6.82;2.60;;;2.70;99.90;;;;;;5054630;28;20060;-50
2021/04/21 00:56:09;;;;;;;5.60;2.47;;;2.70;99.90;;;;;;5054489;28;20032;-51
2021/04/21 00:59:05;;;;;;;3.78;2.30;;;2.60;99.90;;;;;;5054430;28;20176;-48
2021/04/21 01:01:33;;;;;;;4.70;2.60;;;2.60;99.90;;;;;;5054463;28;20064;-52
2021/04/21 01:04:01;;;;;;;7.60;2.50;;;2.50;99.90;;;;;;5054401;28;20029;-50
2021/04/21 01:06:38;;;;;;;5.90;2.13;;;2.50;99.90;;;;;;5053372;28;20104;-49
2021/04/21 01:09:08;;;;;;;7.53;2.83;;;2.40;99.90;;;;;;5054253;28;20411;-49
2021/04/21 01:11:42;;;;;;;5.53;2.90;;;2.40;99.90;;;;;;5054107;28;20025;-48
2021/04/21 01:14:13;;;;;;;6.05;2.22;;;2.40;99.90;;;;;;5054439;28;20048;-49
2021/04/21 01:16:41;;;;;;;5.80;2.33;;;2.30;99.90;;;;;;5054055;28;20052;-48
2021/04/21 01:20:04;;;;;;;5.05;2.50;;;2.30;99.90;;;;;;5054182;28;20032;-49
2021/04/21 01:22:48;;;;;;;6.70;3.25;;;2.30;99.90;;;;;;5042696;28;20041;-51
2021/04/21 01:25:26;;;;;;;8.55;3.10;;;2.20;99.90;;;;;;5053766;28;20036;-51
2021/04/21 01:28:10;;;;;;;5.07;2.78;;;2.20;99.90;;;;;;5054168;28;20056;-52
2021/04/21 01:30:37;;;;;;;5.22;2.70;;;2.20;99.90;;;;;;5053955;28;20032;-49
2021/04/21 01:33:11;;;;;;;5.53;2.58;;;2.10;99.90;;;;;;5054006;28;20036;-48
2021/04/21 01:35:41;;;;;;;5.75;2.47;;;2.10;99.90;;;;;;5053072;28;20358;-50
2021/04/21 01:38:08;;;;;;;4.45;2.25;;;2.10;99.90;;;;;;5054315;28;20423;-48
2021/04/21 01:40:36;;;;;;;5.53;2.72;;;2.00;99.90;;;;;;5053415;28;20057;-48
2021/04/21 01:43:08;;;;;;;4.57;2.30;;;2.00;99.90;;;;;;5053845;28;20492;-50
2021/04/21 01:45:35;;;;;;;6.35;2.58;;;1.90;99.90;;;;;;5053551;28;20119;-48
2021/04/21 01:48:06;;;;;;;6.90;2.80;;;1.90;99.90;;;;;;5053812;28;20379;-48
2021/04/21 01:50:32;;;;;;;8.43;2.97;;;1.90;99.90;;;;;;5053006;28;20017;-51
2021/04/21 01:53:35;;;;;;;4.10;2.40;;;1.80;99.90;;;;;;5053248;28;20052;-49
2021/04/21 01:56:22;;;;;;;8.20;2.55;;;1.80;99.90;;;;;;5053392;28;20025;-49
2021/04/21 01:59:26;;;;;;;8.35;2.92;;;1.80;99.90;;;;;;5049252;28;20029;-49
2021/04/21 02:02:03;;;;;;;6.30;2.63;;;1.70;99.90;;;;;;5053410;28;20024;-49
2021/04/21 02:04:48;;;;;;;3.83;2.20;;;1.70;99.90;;;;;;5053449;28;20025;-49
2021/04/21 02:07:52;;;;;;;4.13;2.20;;;1.70;99.90;;;;;;5052506;28;20179;-50
2021/04/21 02:10:26;;;;;;;4.38;2.38;;;1.60;99.90;;;;;;5053116;28;20033;-49
2021/04/21 02:13:04;;;;;;;6.25;2.50;;;1.60;99.90;;;;;;5053153;28;20048;-48
2021/04/21 02:15:57;;;;;;;8.68;3.53;;;1.60;99.90;;;;;;5053011;28;20090;-51
2021/04/21 02:18:49;;;;;;;6.47;2.75;;;1.50;99.90;;;;;;5053275;28;20067;-47
2021/04/21 02:21:42;;;;;;;6.03;2.75;;;1.50;99.90;;;;;;5051964;28;20526;-48
2021/04/21 02:24:29;;;;;;;5.38;2.35;;;1.50;99.90;;;;;;5053168;28;20029;-49
2021/04/21 02:27:19;;;;;;;2.50;1.90;;;1.50;99.90;;;;;;5052804;28;20154;-50
2021/04/21 02:30:05;;;;;;;5.45;2.75;;;1.50;99.90;;;;;;5052597;28;20321;-50
2021/04/21 02:33:00;;;;;;;6.45;2.95;;;1.40;99.90;;;;;;5052836;28;20028;-49
2021/04/21 02:35:37;;;;;;;5.40;2.25;;;1.40;99.90;;;;;;5052897;28;20029;-49
2021/04/21 02:38:37;;;;;;;4.43;2.67;;;1.30;99.90;;;;;;5053034;28;20111;-50
2021/04/21 02:41:06;;;;;;;5.88;2.53;;;1.30;99.90;;;;;;5032455;28;20052;-51
2021/04/21 02:44:10;;;;;;;8.45;3.75;;;1.30;99.90;;;;;;5032833;28;20440;-49
2021/04/21 02:46:54;;;;;;;3.88;2.17;;;1.30;99.90;;;;;;5032712;28;20461;-52
2021/04/21 02:49:30;;;;;;;3.88;2.00;;;1.20;99.90;;;;;;5032765;28;20071;-50
2021/04/21 02:52:17;;;;;;;5.00;2.90;;;1.20;99.90;;;;;;5044992;28;20036;-48
2021/04/21 02:55:03;;;;;;;6.93;2.70;;;1.20;99.90;;;;;;5052633;28;20017;-51
2021/04/21 02:57:36;;;;;;;4.82;2.72;;;1.20;99.90;;;;;;5051883;28;20065;-48
2021/04/21 03:00:13;;;;;;;8.00;3.42;;;1.20;99.90;;;;;;5052600;28;20025;-48
2021/04/21 03:02:57;;;;;;;7.35;2.15;;;1.20;99.90;;;;;;5052376;28;20059;-50
2021/04/21 03:05:26;;;;;;;5.30;2.60;;;1.10;99.90;;;;;;5051029;28;20399;-49
2021/04/21 03:08:12;;;;;;;5.15;2.92;;;1.10;99.90;;;;;;5049272;28;20041;-52
2021/04/21 03:10:44;;;;;;;3.22;2.13;;;1.10;99.90;;;;;;5052222;28;20029;-49
2021/04/21 03:13:16;;;;;;;6.63;2.90;;;1.10;99.90;;;;;;5052185;28;20472;-50
2021/04/21 03:15:51;;;;;;;6.90;3.45;;;1.10;99.90;;;;;;5052184;28;20041;-52
2021/04/21 03:18:20;;;;;;;8.00;2.90;;;1.10;99.90;;;;;;5052401;28;20112;-52
2021/04/21 03:20:56;;;;;;;8.35;3.30;;;1.00;99.90;;;;;;5051213;28;20096;-51
2021/04/21 03:23:25;;;;;;;6.68;3.22;;;1.00;99.90;;;;;;5052423;28;20079;-50
2021/04/21 03:25:52;;;;;;;5.88;3.22;;;1.00;99.90;;;;;;5052102;28;20041;-48
2021/04/21 03:28:22;;;;;;;7.95;3.20;;;1.00;99.90;;;;;;5052235;28;20053;-49
2021/04/21 03:30:52;;;;;;;8.52;3.08;;;1.00;99.90;;;;;;5052094;28;20025;-48
2021/04/21 03:33:25;;;;;;;6.95;2.70;;;1.00;99.90;;;;;;5052090;28;20032;-48
2021/04/21 03:35:52;;;;;;;6.68;2.88;;;0.90;99.90;;;;;;5051132;28;20502;-48
2021/04/21 03:38:20;;;;;;;7.18;3.50;;;0.90;99.90;;;;;;5050895;28;20396;-50
2021/04/21 03:40:45;;;;;;;9.88;3.17;;;0.90;99.90;;;;;;5051693;28;20053;-49
2021/04/21 03:43:12;;;;;;;5.80;3.30;;;0.90;99.90;;;;;;5051973;28;20025;-48
2021/04/21 03:45:40;;;;;;;4.53;2.70;;;0.90;99.90;;;;;;5051920;28;20393;-48
2021/04/21 03:48:07;;;;;;;7.40;3.85;;;0.90;99.90;;;;;;5052232;28;20032;-49
2021/04/21 03:50:34;;;;;;;6.80;3.35;;;0.90;99.90;;;;;;5050956;28;20032;-50
2021/04/21 03:53:06;;;;;;;7.78;2.88;;;0.90;99.90;;;;;;5051932;28;20029;-48
2021/04/21 03:55:33;;;;;;;8.57;3.40;;;1.00;99.90;;;;;;5051897;28;20113;-50
2021/04/21 03:58:03;;;;;;;7.57;3.63;;;1.00;99.90;;;;;;5051665;28;20056;-48
2021/04/21 04:00:31;;;;;;;8.13;3.50;;;1.00;99.90;;;;;;5052067;28;20033;-49
2021/04/21 04:02:58;;;;;;;12.25;3.60;;;1.00;99.90;;;;;;5051855;28;20063;-48
2021/04/21 04:05:28;;;;;;;5.38;2.83;;;1.00;99.90;;;;;;5052024;28;20028;-48
2021/04/21 04:08:02;;;;;;;10.73;3.80;;;1.10;99.90;;;;;;5051218;28;20026;-49
2021/04/21 04:10:33;;;;;;;6.22;3.20;;;1.10;99.90;;;;;;5054669;28;20032;-50
2021/04/21 04:13:03;;;;;;;6.88;3.25;;;1.20;99.90;;;;;;5055130;28;20060;-48
2021/04/21 04:15:31;;;;;;;7.45;3.08;;;1.30;99.90;;;;;;5055368;28;20017;-52
2021/04/21 04:18:00;;;;;;;5.63;2.92;;;1.30;99.90;;;;;;5034001;28;20048;-52
2021/04/21 04:20:28;;;;;;;4.55;3.10;;;1.40;99.90;;;;;;5035075;28;20025;-52
2021/04/21 04:22:58;;;;;;;5.15;2.55;;;1.40;99.90;;;;;;5034984;28;20030;-52
2021/04/21 04:25:26;;;;;;;8.00;3.25;;;1.50;99.90;;;;;;5035477;28;20026;-51
2021/04/21 04:27:54;;;;;;;6.47;3.42;;;1.60;99.90;;;;;;5035124;28;20028;-52
2021/04/21 04:30:21;;;;;;;6.65;3.20;;;1.70;99.90;;;;;;5035329;28;20026;-51
2021/04/21 04:32:51;;;;;;;7.93;3.45;;;1.80;99.90;;;;;;5034723;28;20025;-49
2021/04/21 04:35:16;;;;;;;8.77;3.38;;;1.90;99.90;;;;;;5035043;28;20080;-52
2021/04/21 04:37:42;;;;;;;7.85;3.40;;;2.10;99.90;;;;;;5034063;28;20029;-52
2021/04/21 04:40:10;;;;;;;5.45;3.10;;;2.20;99.90;;;;;;5068740;28;20375;-52
2021/04/21 04:42:37;;;;;;;10.27;3.50;;;2.40;99.90;;;;;;5074927;28;20066;-53
2021/04/21 04:45:04;;;;;;;9.55;3.97;;;2.80;99.90;;;;;;5074768;28;20051;-53
2021/04/21 04:47:32;;;;;;;5.13;2.95;;;3.40;99.90;;;;;;5074774;28;20020;-50
2021/04/21 04:50:09;;;;;;;7.75;3.40;;;4.30;99.90;;;;;;5074807;28;20230;-53
2021/04/21 04:52:35;;;;;;;;;;;5.40;99.90;;;;;;5055496;28;20029;-49
2021/04/21 04:55:03;;;;;;;6.85;3.17;;;6.30;99.90;;;;;;5054732;28;20372;-51
2021/04/21 04:57:30;;;;;;;6.15;2.63;;;7.20;99.90;;;;;;5054722;28;20160;-50
2021/04/21 05:00:00;;;;;;;4.20;2.80;;;8.10;97.60;;;;;;5047818;28;20049;-51
2021/04/21 05:02:26;;;;;;;6.88;4.05;;;8.90;94.30;;;;;;5034131;28;20021;-52
2021/04/21 05:05:07;;;;;;;6.40;3.53;;;9.60;92.20;;;;;;5034544;28;20080;-49
2021/04/21 05:07:44;;;;;;;6.32;3.30;;;10.40;90.10;;;;;;5033196;28;20052;-54
2021/04/21 05:10:17;;;;;;;3.78;3.08;;;11.10;87.20;;;;;;5034410;28;20499;-53
2021/04/21 05:12:44;;;;;;;4.90;3.03;;;11.60;85.00;;;;;;5034023;28;20489;-52
2021/04/21 05:15:32;;;;;;;5.15;3.15;;;12.20;83.00;;;;;;5034343;28;20025;-51
2021/04/21 05:18:19;;;;;;;7.53;3.42;;;12.80;75.40;;;;;;5034081;28;20029;-50
2021/04/21 05:21:10;;;;;;;8.38;2.58;;;13.40;79.20;;;;;;5031770;28;20025;-50
2021/04/21 05:24:10;;;;;;;4.47;2.85;;;14.00;75.90;;;;;;5034153;28;20573;-52
2021/04/21 05:27:00;;;;;;;7.30;2.70;;;14.60;73.30;;;;;;5034026;28;20041;-54
2021/04/21 05:30:03;;;;;;;4.53;2.67;;;15.30;72.10;;;;;;5033795;28;20025;-49
2021/04/21 05:33:03;;;;;;;5.38;2.92;;;15.90;68.50;;;;;;5033959;28;20029;-52
2021/04/21 05:35:55;;;;;;;6.53;2.42;;;16.60;69.10;;;;;;5033099;28;20032;-55
2021/04/21 05:39:06;;;;;;;2.47;2.28;;;17.20;69.40;;;;;;5038254;28;20465;-51
2021/04/21 05:41:37;;;;;;;6.50;3.15;;;17.70;62.70;;;;;;5073716;28;20044;-49
2021/04/21 05:44:53;;;;;;;8.68;2.88;;;18.30;66.40;;;;;;5073642;28;20355;-53
2021/04/21 05:47:49;;;;;;;4.35;2.60;;;18.80;64.10;;;;;;5072389;28;20036;-55
2021/04/21 05:50:58;;;;;;;4.22;2.83;;;19.30;60.90;;;;;;5073399;28;20142;-51
2021/04/21 05:53:40;;;;;;;6.25;2.60;;;19.80;58.10;;;;;;5033598;28;20094;-51
2021/04/21 05:56:24;;;;;;;3.40;2.60;;;20.30;59.80;;;;;;5033684;28;20036;-54
2021/04/21 05:59:28;;;;;;;5.45;2.60;;;20.70;56.00;;;;;;5033627;28;20554;-50
2021/04/21 06:01:55;;;;;;;5.05;2.92;;;21.00;55.00;;;;;;5032947;28;20021;-53
2021/04/21 06:04:23;;;;;;;3.75;2.55;;;21.40;59.40;;;;;;5032589;28;20460;-52
2021/04/21 06:06:48;;;;;;;4.40;2.72;;;21.60;58.70;;;;;;5032522;28;20495;-53
2021/04/21 06:09:14;;;;;;;6.53;2.50;;;21.90;58.10;;;;;;5033326;28;20112;-51
2021/04/21 06:11:39;;;;;;;6.65;2.78;;;22.20;57.10;;;;;;5033338;28;20193;-57
2021/04/21 06:14:06;;;;;;;4.10;2.72;;;22.50;56.70;;;;;;5032937;28;20413;-52
2021/04/21 06:16:34;;;;;;;3.85;3.10;;;23.10;55.60;;;;;;5032952;28;20021;-54
2021/04/21 06:19:07;;;;;;;4.97;3.13;;;23.40;54.60;;;;;;5033084;28;20049;-53
2021/04/21 06:21:39;;;;;;;4.07;2.80;;;23.70;52.50;;;;;;5032277;28;20036;-54
2021/04/21 06:24:22;;;;;;;6.35;3.20;;;23.90;49.50;;;;;;5033113;28;20116;-55
2021/04/21 06:26:48;;;;;;;4.78;3.05;;;24.40;45.60;;;;;;5033165;28;20036;-53
2021/04/21 06:29:16;;;;;;;5.95;2.95;;;24.60;51.20;;;;;;5031729;28;20057;-56
2021/04/21 06:31:50;;;;;;;6.30;3.15;;;24.90;50.70;;;;;;5043700;28;20092;-56
2021/04/21 06:34:16;;;;;;;4.10;2.63;;;25.20;48.60;;;;;;5052698;28;20082;-52
2021/04/21 06:36:50;;;;;;;5.45;3.42;;;25.50;49.30;;;;;;5052069;28;20514;-51
2021/04/21 06:39:22;;;;;;;6.70;2.78;;;25.80;48.40;;;;;;5062348;28;20031;-54
2021/04/21 06:41:55;;;;;;;5.18;3.15;;;26.00;46.80;;;;;;5072658;28;20514;-55
2021/04/21 06:44:42;;;;;;;3.65;2.72;;;26.10;44.40;;;;;;5072507;28;20384;-54
2021/04/21 06:47:09;;;;;;;5.00;3.75;;;26.30;44.20;;;;;;5072594;28;20029;-53
2021/04/21 06:49:35;;;;;;;5.30;2.92;;;26.60;46.90;;;;;;5072544;28;20555;-51
2021/04/21 06:52:15;;;;;;;6.13;3.33;;;26.80;46.20;;;;;;5057591;28;20028;-52
2021/04/21 06:54:41;;;;;;;3.72;2.50;;;27.20;42.10;;;;;;5068204;28;20433;-54
2021/04/21 06:57:07;;;;;;;7.20;3.30;;;27.40;44.80;;;;;;5058367;28;20009;-54
2021/04/21 06:59:33;;;;;;;3.92;3.30;;;27.50;44.30;;;;;;5052343;28;20393;-53
2021/04/21 07:01:58;;;;;;;6.32;3.53;;;27.60;44.10;;;;;;5052284;28;20021;-53
2021/04/21 07:04:24;;;;;;;5.30;3.08;;;27.70;44.00;;;;;;5052484;28;20025;-60
2021/04/21 07:06:50;;;;;;;4.22;3.30;;;28.00;43.40;;;;;;5051851;28;20411;-60
2021/04/21 07:09:17;;;;;;;6.88;3.50;;;28.30;42.70;;;;;;5052249;28;20048;-57
2021/04/21 07:11:43;;;;;;;4.30;2.90;;;28.40;42.10;;;;;;5052205;28;20021;-56
2021/04/21 07:14:19;;;;;;;4.63;3.50;;;28.50;41.80;;;;;;5067626;28;20036;-54
2021/04/21 07:16:44;;;;;;;4.72;3.67;;;28.80;41.30;;;;;;5052356;28;20017;-56
2021/04/21 07:19:12;;;;;;;4.50;3.05;;;29.00;40.80;;;;;;5052122;28;20017;-57
2021/04/21 07:21:43;;;;;;;7.07;3.40;;;29.10;40.20;;;;;;5051519;28;20033;-50
2021/04/21 07:24:11;;;;;;;5.47;3.45;;;29.20;39.00;;;;;;5051982;28;20115;-52
2021/04/21 07:26:45;;;;;;;5.13;2.88;;;29.40;39.30;;;;;;5052250;28;20033;-49
2021/04/21 07:29:21;;;;;;;4.18;3.20;;;29.70;38.10;;;;;;5052109;28;20028;-55
2021/04/21 07:31:47;;;;;;;5.88;3.15;;;29.90;38.20;;;;;;5052132;28;20025;-53
2021/04/21 07:34:14;;;;;;;7.88;4.20;;;30.00;38.80;;;;;;5052129;28;20021;-52
2021/04/21 07:36:47;;;;;;;5.57;3.38;;;30.20;38.60;;;;;;5051044;28;20023;-51
2021/04/21 07:39:13;;;;;;;7.53;3.85;;;30.50;38.10;;;;;;5061253;28;20375;-51
2021/04/21 07:41:40;;;;;;;7.43;3.75;;;30.50;37.80;;;;;;5072126;28;20056;-50
2021/04/21 07:44:25;;;;;;;9.63;3.03;;;30.60;37.70;;;;;;5074301;28;20070;-51
2021/04/21 07:47:10;;;;;;;5.40;3.50;;;30.60;37.30;;;;;;5075577;28;20028;-51
2021/04/21 07:49:46;;;;;;;4.05;3.17;;;30.90;35.90;;;;;;5076004;28;20091;-52
2021/04/21 07:52:26;;;;;;;5.90;3.97;;;30.90;36.80;;;;;;5059433;28;20033;-52
2021/04/21 07:55:12;;;;;;;5.60;3.42;;;31.00;35.00;;;;;;5055847;28;20525;-53
2021/04/21 07:58:01;;;;;;;3.65;2.75;;;31.00;32.50;;;;;;5055856;28;20059;-54
2021/04/21 08:00:29;;;;;;;7.45;3.92;;;31.20;35.10;;;;;;5055619;28;20037;-51
2021/04/21 08:02:56;;;;;;;7.97;4.28;;;31.30;35.50;;;;;;5055629;28;20061;-52
2021/04/21 08:05:21;;;;;;;7.63;4.10;;;31.50;35.30;;;;;;5055211;28;20048;-52
2021/04/21 08:08:01;;;;;;;7.65;4.07;;;31.60;35.00;;;;;;5055219;28;20064;-53
2021/04/21 08:10:30;;;;;;;4.75;3.75;;;31.70;32.70;;;;;;5055439;28;20021;-46
2021/04/21 08:12:58;;;;;;;7.35;3.95;;;31.80;34.60;;;;;;5055481;28;20036;-51
2021/04/21 08:15:34;;;;;;;3.55;3.22;;;31.90;34.30;;;;;;5055342;28;20090;-48
2021/04/21 08:18:14;;;;;;;6.32;3.78;;;32.20;33.80;;;;;;5055397;28;20021;-50
2021/04/21 08:20:50;;;;;;;7.20;4.13;;;32.30;32.10;;;;;;5054504;28;20021;-51
2021/04/21 08:23:20;;;;;;;4.45;3.40;;;32.30;33.60;;;;;;5055254;28;20078;-52
2021/04/21 08:25:46;;;;;;;6.63;3.90;;;32.40;33.40;;;;;;5055321;28;20043;-52
2021/04/21 08:28:12;;;;;;;8.75;3.88;;;32.30;33.40;;;;;;5055215;28;20429;-52
2021/04/21 08:30:37;;;;;;;4.93;3.55;;;32.50;33.10;;;;;;5055227;28;20071;-52
2021/04/21 08:33:03;;;;;;;5.25;3.78;;;32.40;33.00;;;;;;5054780;28;20112;-51
2021/04/21 08:35:29;;;;;;;5.28;3.38;;;32.40;32.80;;;;;;5054131;28;20070;-52
2021/04/21 08:37:55;;;;;;;5.38;3.72;;;32.40;32.80;;;;;;5055153;28;20491;-50
2021/04/21 08:40:21;;;;;;;6.35;3.85;;;32.30;32.70;;;;;;5073362;28;20048;-53
2021/04/21 08:42:54;;;;;;;13.77;4.93;;;32.30;32.70;;;;;;5075087;28;20035;-52
2021/04/21 08:45:19;;;;;;;7.85;4.38;;;32.30;31.90;;;;;;5074739;28;20021;-51
2021/04/21 08:47:45;;;;;;;4.00;3.53;;;32.30;32.30;;;;;;5074918;28;20034;-50
2021/04/21 08:50:11;;;;;;;19.88;4.95;;;32.40;32.30;;;;;;5074584;28;20071;-48
2021/04/21 08:52:47;;;;;;;4.78;3.25;;;32.40;32.00;;;;;;5055091;28;20075;-51
2021/04/21 08:55:16;;;;;;;5.72;3.17;;;32.20;31.10;;;;;;5053794;28;20044;-50
2021/04/21 08:57:43;;;;;;;3.47;2.90;;;32.40;31.60;;;;;;5054826;28;20013;-47
2021/04/21 09:00:10;;;;;;;3.40;3.03;;;32.30;31.60;;;;;;5054316;28;20035;-52
2021/04/21 09:02:36;;;;;;;5.38;3.38;;;32.20;31.50;;;;;;5053094;28;20048;-53
2021/04/21 09:05:03;;;;;;;5.13;3.22;;;31.80;31.00;;;;;;5053589;28;20021;-51
2021/04/21 09:07:29;;;;;;;4.18;2.75;;;31.80;31.10;;;;;;5053426;28;20384;-51
2021/04/21 09:09:57;;;;;;;5.80;3.00;;;31.70;31.10;;;;;;5054486;28;20095;-51
2021/04/21 09:12:24;;;;;;;46.47;8.15;;;31.80;30.70;;;;;;5054303;28;20025;-54
2021/04/21 09:14:51;;;;;;;4.75;3.33;;;31.70;30.70;;;;;;5054222;28;20025;-55
2021/04/21 09:17:20;;;;;;;5.00;3.10;;;31.60;30.50;;;;;;5054324;28;20021;-53
2021/04/21 09:19:46;;;;;;;8.32;3.08;;;31.50;30.40;;;;;;5054061;28;20551;-51
2021/04/21 09:22:12;;;;;;;3.60;3.28;;;31.50;30.50;;;;;;5053284;28;20058;-51
2021/04/21 09:24:38;;;;;;;5.88;3.28;;;31.40;30.40;;;;;;5054202;28;20417;-50
2021/04/21 09:27:24;;;;;;;69.07;13.35;;;31.30;30.60;;;;;;5054116;28;20033;-50
2021/04/21 09:29:49;;;;;;;4.97;3.35;;;31.30;30.10;;;;;;5054112;28;20032;-52
2021/04/21 09:32:16;;;;;;;5.25;3.50;;;31.10;30.30;;;;;;5053833;28;20025;-50
2021/04/21 09:34:55;;;;;;;5.68;2.85;;;31.00;30.30;;;;;;5053707;28;20021;-49
2021/04/21 09:37:26;;;;;;;5.35;3.17;;;30.90;29.90;;;;;;5052775;28;20050;-53
2021/04/21 09:39:51;;;;;;;9.35;4.90;;;30.80;30.00;;;;;;5053623;28;20070;-49
2021/04/21 09:42:25;;;;;;;3.47;2.95;;;30.70;30.20;;;;;;5053599;28;20049;-48
2021/04/21 09:44:52;;;;;;;3.22;2.92;;;30.60;30.00;;;;;;5053749;28;20021;-54
2021/04/21 09:47:20;;;;;;;5.53;3.78;;;30.40;30.30;;;;;;5053717;28;20021;-56
2021/04/21 09:49:45;;;;;;;4.10;3.35;;;30.20;30.30;;;;;;5053486;28;20388;-50
2021/04/21 09:52:11;;;;;;;5.43;3.67;;;30.10;30.40;;;;;;5052489;28;20025;-48
2021/04/21 09:54:42;;;;;;;7.45;4.68;;;29.80;30.40;;;;;;5053588;28;20025;-52
2021/04/21 09:57:16;;;;;;;5.30;3.08;;;29.60;30.50;;;;;;5053641;28;20017;-51
2021/04/21 09:59:52;;;;;;;6.15;3.10;;;29.40;30.00;;;;;;5053431;28;20025;-52
2021/04/21 10:02:38;;;;;;;5.70;3.40;;;29.00;30.40;;;;;;5053438;28;20064;-54
2021/04/21 10:05:23;;;;;;;4.25;3.25;;;28.30;30.50;;;;;;5053377;28;20028;-49
2021/04/21 10:08:11;;;;;;;5.82;3.67;;;27.20;31.10;;;;;;5053446;28;20051;-54
2021/04/21 10:10:38;;;;;;;8.23;4.28;;;26.30;31.90;;;;;;5053192;28;20039;-54
2021/04/21 10:13:15;;;;;;;4.95;4.10;;;25.60;32.00;;;;;;5052442;28;20119;-49
2021/04/21 10:15:42;;;;;;;5.32;4.20;;;25.10;32.60;;;;;;5053111;28;20021;-51
2021/04/21 10:18:11;;;;;;;5.30;4.53;;;24.60;32.90;;;;;;5053321;28;20029;-49
2021/04/21 10:20:36;;;;;;;5.13;3.95;;;24.20;33.20;;;;;;5052061;28;20024;-49
2021/04/21 10:23:02;;;;;;;6.80;4.32;;;23.90;34.20;;;;;;5053281;28;20025;-52
2021/04/21 10:25:28;;;;;;;4.82;3.95;;;23.60;33.80;;;;;;5052608;28;20104;-52
2021/04/21 10:27:54;;;;;;;5.63;4.32;;;23.40;34.00;;;;;;5052493;28;20557;-53
2021/04/21 10:30:20;;;;;;;7.07;3.58;;;23.20;34.00;;;;;;5052722;28;20025;-50
2021/04/21 10:32:46;;;;;;;9.43;4.70;;;23.00;34.20;;;;;;5050953;28;20035;-48
2021/04/21 10:35:12;;;;;;;7.03;4.22;;;22.70;34.40;;;;;;5052756;28;20029;-50
2021/04/21 10:37:40;;;;;;;6.45;3.95;;;22.50;34.80;;;;;;5051841;28;20120;-54
2021/04/21 10:40:07;;;;;;;7.75;4.72;;;22.30;35.10;;;;;;5068864;28;20085;-54
2021/04/21 10:42:51;;;;;;;5.70;3.58;;;22.20;35.40;;;;;;5072680;28;20035;-50
2021/04/21 10:45:20;;;;;;;8.90;4.70;;;21.90;36.20;;;;;;5072605;28;20030;-57
2021/04/21 10:47:47;;;;;;;7.72;4.10;;;21.70;36.00;;;;;;5072601;28;20028;-55
2021/04/21 10:50:31;;;;;;;5.97;4.25;;;21.50;36.10;;;;;;5072441;28;20041;-54
2021/04/21 10:52:58;;;;;;;5.85;4.28;;;21.40;36.50;;;;;;5032498;28;20057;-53
2021/04/21 10:55:38;;;;;;;6.88;3.47;;;21.20;36.30;;;;;;5032557;28;20018;-52
2021/04/21 10:58:10;;;;;;;6.18;3.55;;;21.00;36.40;;;;;;5032617;28;20018;-54
2021/04/21 11:00:39;;;;;;;6.68;3.45;;;21.00;36.70;;;;;;5032362;28;20048;-52
2021/04/21 11:03:10;;;;;;;6.47;4.28;;;20.80;36.60;;;;;;5032516;28;20030;-52
2021/04/21 11:05:44;;;;;;;8.20;4.65;;;20.80;36.90;;;;;;5031512;28;20033;-51
2021/04/21 11:08:22;;;;;;;6.13;3.70;;;20.60;37.00;;;;;;5032423;28;20061;-50
2021/04/21 11:10:53;;;;;;;6.43;4.28;;;20.50;37.90;;;;;;5031147;28;20032;-52
2021/04/21 11:13:34;;;;;;;7.47;3.47;;;20.50;37.70;;;;;;5032414;28;20076;-52
2021/04/21 11:16:02;;;;;;;6.93;3.35;;;20.50;38.00;;;;;;5032379;28;20365;-55
2021/04/21 11:18:28;;;;;;;6.38;3.25;;;20.60;37.30;;;;;;5035213;28;20059;-50
2021/04/21 11:20:59;;;;;;;7.60;4.65;;;20.60;37.20;;;;;;5038063;28;20026;-49
2021/04/21 11:23:55;;;;;;;8.65;3.70;;;20.50;37.20;;;;;;5038761;28;20022;-48
2021/04/21 11:26:35;;;;;;;6.50;3.20;;;20.50;37.50;;;;;;5038758;28;20473;-53
2021/04/21 11:29:06;;;;;;;5.30;3.65;;;20.50;37.70;;;;;;5039008;28;20057;-50
2021/04/21 11:31:49;;;;;;;4.68;3.25;;;20.40;38.30;;;;;;5038783;28;20017;-50
2021/04/21 11:34:27;;;;;;;8.88;3.05;;;20.40;40.20;;;;;;5038856;28;20026;-52
2021/04/21 11:37:00;;;;;;;4.60;3.35;;;20.40;38.90;;;;;;5037815;28;20026;-50
2021/04/21 11:39:43;;;;;;;6.35;2.63;;;20.40;38.80;;;;;;5061020;28;20142;-51
2021/04/21 11:42:35;;;;;;;5.50;2.67;;;20.50;38.30;;;;;;5078616;28;20052;-50
2021/04/21 11:45:19;;;;;;;6.05;2.30;;;20.60;38.80;;;;;;5078763;28;20044;-48
2021/04/21 11:47:52;;;;;;;9.27;2.67;;;20.70;38.10;;;;;;5078728;28;20361;-50
2021/04/21 11:50:17;;;;;;;5.40;3.35;;;20.90;38.00;;;;;;5078032;28;20024;-49
2021/04/21 11:52:48;;;;;;;7.07;2.90;;;21.00;38.10;;;;;;5058219;28;20035;-50
2021/04/21 11:55:23;;;;;;;4.90;2.58;;;21.10;38.00;;;;;;5058153;28;20032;-54
2021/04/21 11:57:53;;;;;;;5.73;2.83;;;21.20;37.90;;;;;;5058790;28;20391;-51
2021/04/21 12:00:24;;;;;;;6.32;3.30;;;21.00;37.90;;;;;;5058656;28;20615;-48
2021/04/21 12:02:51;;;;;;;6.20;3.63;;;20.90;37.80;;;;;;5058570;28;20021;-52
2021/04/21 12:05:35;;;;;;;5.72;2.80;;;20.60;37.60;;;;;;5057700;28;20162;-55
2021/04/21 12:08:03;;;;;;;5.78;3.00;;;20.40;37.80;;;;;;5058333;28;20056;-53
2021/04/21 12:10:33;;;;;;;6.13;3.33;;;20.20;38.20;;;;;;5058126;28;20025;-54
2021/04/21 12:13:21;;;;;;;4.50;2.78;;;20.00;38.30;;;;;;5058392;28;20029;-55
2021/04/21 12:15:52;;;;;;;4.20;2.72;;;19.80;38.90;;;;;;5058321;28;20386;-48
2021/04/21 12:18:27;;;;;;;4.68;3.05;;;19.80;39.00;;;;;;5073978;28;20392;-54
2021/04/21 12:20:53;;;;;;;8.33;3.20;;;19.70;39.40;;;;;;5057402;28;20029;-55
2021/04/21 12:23:31;;;;;;;8.35;3.88;;;19.80;39.40;;;;;;5058224;28;20036;-56
2021/04/21 12:25:57;;;;;;;5.40;2.83;;;19.80;39.80;;;;;;5058217;28;20029;-56
2021/04/21 12:28:23;;;;;;;5.60;3.03;;;19.90;39.70;;;;;;5058452;28;20468;-57
2021/04/21 12:30:57;;;;;;;4.25;2.83;;;19.90;40.00;;;;;;5054248;28;20032;-54
2021/04/21 12:33:23;;;;;;;4.30;3.03;;;19.90;41.20;;;;;;5055095;28;20023;-52
2021/04/21 12:35:57;;;;;;;4.18;3.13;;;19.90;40.30;;;;;;5054045;28;20031;-56
2021/04/21 12:38:27;;;;;;;8.38;3.10;;;19.90;40.90;;;;;;5057367;28;20530;-55
2021/04/21 12:40:53;;;;;;;6.18;2.83;;;19.90;41.00;;;;;;5074745;28;20052;-51
2021/04/21 12:43:19;;;;;;;5.35;3.58;;;20.00;42.10;;;;;;5074860;28;20032;-49
2021/04/21 12:45:45;;;;;;;6.20;3.17;;;20.10;41.00;;;;;;5074795;28;20598;-52
2021/04/21 12:48:21;;;;;;;5.80;3.65;;;20.00;40.80;;;;;;5074843;28;20055;-50
2021/04/21 12:50:49;;;;;;;7.03;4.05;;;19.90;40.70;;;;;;5069941;28;20031;-51
2021/04/21 12:53:18;;;;;;;6.00;3.92;;;19.80;40.70;;;;;;5054895;28;20083;-52
2021/04/21 12:55:44;;;;;;;4.85;3.33;;;19.60;40.90;;;;;;5051323;28;20013;-49
2021/04/21 12:58:11;;;;;;;7.03;3.90;;;19.50;41.20;;;;;;5052153;28;20535;-51
2021/04/21 13:00:37;;;;;;;6.65;3.65;;;19.40;41.30;;;;;;5054164;28;20029;-51
2021/04/21 13:03:03;;;;;;;4.30;3.28;;;19.40;41.50;;;;;;5054342;28;20082;-53
2021/04/21 13:05:49;;;;;;;5.30;3.33;;;19.50;41.60;;;;;;5050252;28;20037;-48
2021/04/21 13:08:18;;;;;;;;;;;19.50;42.00;;;;;;5054630;28;20066;-49
2021/04/21 13:10:43;;;;;;;8.00;3.30;;;19.60;42.20;;;;;;5054182;28;19905;-48
2021/04/21 13:13:10;;;;;;;5.32;3.28;;;19.50;41.50;;;;;;5053899;28;20205;-51
2021/04/21 13:15:38;;;;;;;4.45;2.65;;;19.70;41.80;;;;;;5054216;28;20131;-47
2021/04/21 13:18:11;;;;;;;4.22;3.00;;;19.80;41.60;;;;;;5054121;28;20361;-51
2021/04/21 13:20:42;;;;;;;7.43;2.83;;;19.80;41.50;;;;;;5053160;28;20017;-52
2021/04/21 13:23:27;;;;;;;3.20;2.30;;;19.80;40.90;;;;;;5054041;28;20384;-49